Time;durP1;ratioP1;P1;durP2;ratioP2;P2;SDS_P1;SDS_P2;PMS_P1;PMS_P2;Temp;Humidity;BMP_temperature;BMP_pressure;BME280_temperature;BME280_humidity;BME280_pressure;Samples;Min_cycle;Max_cycle;Signal;HPM_P1;HPM_P2
2023/07/15 00:04:34;;;;;;;7.72;7.53;;;;;;;-141.02;100.00;65159.41;5093512;28;20236;-62
2023/07/15 00:07:01;;;;;;;7.20;7.00;;;;;;;-141.02;100.00;66396.38;5093340;28;20596;-55
2023/07/15 00:09:30;;;;;;;6.80;6.60;;;;;;;-141.02;100.00;67881.38;5093268;28;20197;-61
2023/07/15 00:11:58;;;;;;;6.80;6.60;;;;;;;-141.02;100.00;68376.50;5093339;28;20190;-63
2023/07/15 00:14:25;;;;;;;7.07;6.88;;;;;;;-141.02;100.00;68376.50;5093447;28;20293;-62
2023/07/15 00:16:53;;;;;;;7.00;6.80;;;;;;;-141.02;100.00;67881.38;5093503;28;20204;-62
2023/07/15 00:19:20;;;;;;;7.40;7.20;;;;;;;-141.02;100.00;67881.38;5124106;27;20278;-60
2023/07/15 00:21:49;;;;;;;7.20;7.00;;;;;;;-141.02;100.00;68624.09;5134265;27;20588;-59
2023/07/15 00:24:17;;;;;;;7.28;7.07;;;;;;;-141.02;100.00;69614.66;5134716;27;20237;-58
2023/07/15 00:26:47;;;;;;;7.00;6.80;;;;;;;-141.02;100.00;70605.50;5133763;27;20191;-58
2023/07/15 00:29:16;;;;;;;6.40;6.30;;;;;;;-141.02;100.00;71348.81;5134067;27;20639;-64
2023/07/15 00:31:43;;;;;;;6.05;5.95;;;;;;;-141.02;100.00;72835.97;5133725;27;20222;-63
2023/07/15 00:34:11;;;;;;;5.90;5.80;;;;;;;-141.02;100.00;75315.94;5133980;27;20189;-58
2023/07/15 00:36:38;;;;;;;5.50;5.40;;;;;;;-141.02;100.00;78046.00;5133893;27;20689;-55
2023/07/15 00:39:08;;;;;;;5.40;5.30;;;;;;;-141.02;100.00;79784.44;5134004;27;20619;-63
2023/07/15 00:41:36;;;;;;;5.18;5.07;;;;;;;-141.02;100.00;81523.75;5133984;27;20544;-62
2023/07/15 00:44:05;;;;;;;5.10;5.00;;;;;;;-141.02;100.00;83263.97;5133836;27;20204;-60
2023/07/15 00:46:47;;;;;;;4.80;4.70;;;;;;;-141.02;100.00;84756.25;5133683;27;20280;-62
2023/07/15 00:49:19;;;;;;;4.80;4.70;;;;;;;-141.02;100.00;85502.66;5133794;27;20245;-60
2023/07/15 00:51:49;;;;;;;4.70;4.60;;;;;;;-141.02;100.00;86000.34;5133476;27;20201;-56
2023/07/15 00:54:17;;;;;;;5.00;4.90;;;;;;;-141.02;100.00;86498.09;5133728;27;20559;-64
2023/07/15 00:56:46;;;;;;;5.00;4.90;;;;;;;-141.02;100.00;86995.94;5133659;27;20288;-61
2023/07/15 00:59:15;;;;;;;5.07;4.97;;;;;;;-141.02;100.00;87244.88;5133198;27;20192;-63
2023/07/15 01:01:45;;;;;;;5.00;4.90;;;;;;;-141.02;100.00;87493.84;5133614;27;20219;-58
2023/07/15 01:04:12;;;;;;;5.00;4.90;;;;;;;-141.02;100.00;87991.81;5133192;27;20287;-60
2023/07/15 01:06:41;;;;;;;4.70;4.60;;;;;;;-141.02;100.00;88240.81;5133413;27;20239;-62
2023/07/15 01:09:09;;;;;;;4.88;4.78;;;;;;;-141.02;100.00;88738.88;5133445;27;20195;-63
2023/07/15 01:11:37;;;;;;;4.72;4.63;;;;;;;-141.02;100.00;88738.88;5133472;27;20601;-61
2023/07/15 01:14:04;;;;;;;5.03;4.93;;;;;;;-141.02;100.00;88987.97;5133518;27;20224;-57
2023/07/15 01:16:32;;;;;;;5.10;5.00;;;;;;;-141.02;100.00;89237.03;5133034;27;20657;-57
2023/07/15 01:19:02;;;;;;;4.90;4.80;;;;;;;-141.02;100.00;89486.16;5133011;27;20231;-55
2023/07/15 01:21:33;;;;;;;4.70;4.60;;;;;;;-141.02;100.00;89984.41;5133048;27;20191;-55
2023/07/15 01:24:01;;;;;;;4.60;4.50;;;;;;;-141.02;100.00;90731.94;5133297;27;20192;-57
2023/07/15 01:26:28;;;;;;;4.40;4.30;;;;;;;-141.02;100.00;91230.38;5132784;27;20249;-61
2023/07/15 01:28:55;;;;;;;4.63;4.53;;;;;;;-141.02;100.00;91230.38;5133146;27;20307;-61
2023/07/15 01:38:06;;;;;;;4.80;4.70;;;;;;;-141.02;100.00;92476.78;5131310;28;20249;-55
2023/07/15 01:43:56;;;;;;;4.50;4.40;;;;;;;-141.02;100.00;92726.13;5132877;28;20215;-64
2023/07/15 01:46:23;;;;;;;4.70;4.60;;;;;;;-141.02;100.00;92476.78;5132731;28;20198;-59
2023/07/15 01:48:50;;;;;;;4.80;4.70;;;;;;;-141.02;100.00;92476.78;5132564;28;20259;-55
2023/07/15 01:51:49;;;;;;;4.80;4.70;;;;;;;-141.02;100.00;92726.13;5132914;28;20188;-57
2023/07/15 01:54:16;;;;;;;5.03;4.93;;;;;;;-141.02;100.00;92726.13;5132684;28;20203;-56
2023/07/15 01:56:43;;;;;;;5.10;5.00;;;;;;;-141.02;100.00;92726.13;5132636;28;20238;-60
2023/07/15 01:59:11;;;;;;;4.80;4.70;;;;;;;-141.02;100.00;92476.78;5132531;28;20283;-62
2023/07/15 02:01:40;;;;;;;4.80;4.70;;;;;;;-141.02;100.00;92975.47;5133446;28;20291;-56
2023/07/15 02:04:27;;;;;;;5.00;4.90;;;;;;;-141.02;100.00;93224.84;5132958;28;20199;-57
2023/07/15 02:06:53;;;;;;;5.00;4.90;;;;;;;-141.02;100.00;93224.84;5133409;27;20557;-56
2023/07/15 02:09:20;;;;;;;4.90;4.80;;;;;;;-141.02;100.00;93224.84;5132447;28;20291;-61
2023/07/15 02:11:48;;;;;;;5.00;4.90;;;;;;;-141.02;100.00;93474.22;5132494;28;20766;-58
2023/07/15 02:14:16;;;;;;;4.97;4.88;;;;;;;-141.02;100.00;93973.06;5132730;27;20275;-55
2023/07/15 02:16:43;;;;;;;4.80;4.70;;;;;;;-141.02;100.00;94222.50;5132996;28;20287;-63
2023/07/15 02:19:10;;;;;;;4.63;4.53;;;;;;;-141.02;100.00;94970.94;5132508;28;20392;-55
2023/07/15 02:21:37;;;;;;;4.40;4.30;;;;;;;-141.02;100.00;95969.13;5132386;28;20288;-59
2023/07/15 02:24:05;;;;;;;4.40;4.30;;;;;;;-141.02;100.00;96967.56;5132389;28;20651;-59
2023/07/15 02:26:50;;;;;;;4.20;4.10;;;;;;;-141.02;100.00;97966.31;5132585;27;20197;-64
2023/07/15 02:29:18;;;;;;;4.00;3.90;;;;;;;-141.02;100.00;98715.56;5130984;27;20220;-55
2023/07/15 02:32:39;;;;;;;3.75;3.65;;;;;;;-141.02;100.00;99714.81;5132530;28;20223;-60
2023/07/15 02:35:10;;;;;;;3.42;3.40;;;;;;;-141.02;100.00;100464.44;5132269;27;20249;-58
2023/07/15 02:37:38;;;;;;;3.30;3.30;;;;;;;-141.02;100.00;100964.25;5132867;28;20199;-61
2023/07/15 02:40:48;;;;;;;3.22;3.22;;;;;;;-141.02;100.00;101714.16;5132262;27;20193;-58
2023/07/15 02:43:52;;;;;;;3.10;3.10;;;;;;;-141.02;100.00;102464.22;5132575;27;20192;-56
2023/07/15 02:46:21;;;;;;;2.90;2.90;;;;;;;-141.02;100.00;103214.44;5134579;27;20192;-57
2023/07/15 02:49:18;;;;;;;2.80;2.80;;;;;;;-141.02;100.00;103714.66;5135998;27;20224;-61
2023/07/15 02:51:45;;;;;;;2.90;2.90;;;;;;;-141.02;100.00;103964.81;5136067;27;20269;-62
2023/07/15 02:54:12;;;;;;;3.08;3.08;;;;;;;-141.02;100.00;104465.16;5135718;27;20198;-63
2023/07/15 02:56:39;;;;;;;3.00;3.00;;;;;;;-141.02;100.00;104715.34;5135719;27;20192;-57
2023/07/15 02:59:06;;;;;;;3.10;3.10;;;;;;;-141.02;100.00;104965.56;5135847;27;20196;-60
2023/07/15 03:01:41;;;;;;;3.13;3.13;;;;;;;-141.02;100.00;105215.78;5135915;27;20638;-64
2023/07/15 03:04:08;;;;;;;3.10;3.10;;;;;;;-141.02;100.00;105466.03;5135867;27;20248;-62
2023/07/15 03:07:21;;;;;;;3.13;3.13;;;;;;;-141.02;100.00;105966.59;5135504;27;20204;-56
2023/07/15 03:10:07;;;;;;;3.42;3.40;;;;;;;-141.02;100.00;106216.91;5135809;27;20637;-57
2023/07/15 03:12:34;;;;;;;3.30;3.30;;;;;;;-141.02;100.00;106467.22;5134608;27;20192;-58
2023/07/15 03:15:01;;;;;;;3.30;3.30;;;;;;;-141.02;100.00;106717.56;5135687;27;20192;-57
2023/07/15 03:17:35;;;;;;;3.30;3.30;;;;;;;-141.02;100.00;106717.56;5135446;27;20279;-63
2023/07/15 03:20:04;;;;;;;3.20;3.20;;;;;;;-141.02;100.00;106967.91;5135540;27;20194;-59
2023/07/15 03:22:32;;;;;;;3.20;3.20;;;;;;;-141.02;100.00;106967.91;5135486;27;20192;-55
2023/07/15 03:24:58;;;;;;;3.70;3.60;;;;;;;-141.02;100.00;106967.91;5136579;27;20200;-56
2023/07/15 03:27:25;;;;;;;3.40;3.40;;;;;;;-141.02;100.00;106967.91;5135245;27;20196;-59
2023/07/15 03:29:54;;;;;;;3.70;3.60;;;;;;;-141.02;100.00;106717.56;5135358;27;20204;-61
2023/07/15 03:32:22;;;;;;;3.90;3.80;;;;;;;-141.02;100.00;106717.56;5135470;27;20204;-59
2023/07/15 03:34:51;;;;;;;3.83;3.72;;;;;;;-141.02;100.00;106717.56;5135190;27;20285;-55
2023/07/15 03:37:19;;;;;;;3.78;3.67;;;;;;;-141.02;100.00;106967.91;5135413;27;20197;-61
2023/07/15 03:39:46;;;;;;;3.90;3.80;;;;;;;-141.02;100.00;106967.91;5135141;27;20235;-58
2023/07/15 03:42:13;;;;;;;4.20;4.10;;;;;;;-141.02;100.00;106967.91;5135030;27;20195;-62
2023/07/15 03:44:40;;;;;;;4.10;4.00;;;;;;;-141.02;100.00;106967.91;5134785;27;20200;-55
2023/07/15 03:47:07;;;;;;;4.40;4.30;;;;;;;-141.02;100.00;106467.22;5135111;27;20199;-58
2023/07/15 03:49:34;;;;;;;5.40;5.30;;;;;;;-141.02;100.00;105215.78;5135020;27;20728;-57
2023/07/15 03:52:02;;;;;;;6.40;6.28;;;;;;;-141.02;100.00;102964.34;5134778;27;20228;-56
2023/07/15 03:54:30;;;;;;;7.90;7.70;;;;;;;-141.02;100.00;100964.25;5134679;27;20719;-55
2023/07/15 03:56:57;;;;;;;8.30;8.10;;;;;;;-141.02;100.00;99215.16;5134496;27;20203;-55
2023/07/15 03:59:24;;;;;;;9.30;9.10;;;;;;;-141.02;100.00;97466.91;5134549;27;20196;-63
2023/07/15 04:01:51;;;;;;;9.70;9.40;;;;;;;-141.02;100.00;97716.59;5134447;27;20291;-55
2023/07/15 04:04:18;;;;;;;10.38;10.07;;;;;;;-141.02;100.00;96967.56;5134807;27;20224;-62
2023/07/15 04:06:45;;;;;;;11.10;10.80;;;;;;;-141.02;100.00;95220.47;5134681;27;20246;-55
2023/07/15 04:09:14;;;;;;;12.10;11.70;;;;;;;-141.02;100.00;93474.22;5134230;27;20223;-55
2023/07/15 04:11:41;;;;;;;12.15;11.75;;;;;;;-141.02;100.00;91728.88;5134576;27;20624;-63
2023/07/15 04:14:08;;;;;;;12.13;11.73;;;;;;;-141.02;100.00;91230.38;5134131;27;20200;-63
2023/07/15 04:16:35;;;;;;;12.32;11.93;;;;;;;-141.02;100.00;89984.41;5134408;27;20284;-61
2023/07/15 04:19:02;;;;;;;13.65;13.20;;;;;;;-141.02;100.00;87991.81;5134064;27;20350;-62
2023/07/15 04:21:29;;;;;;;13.95;13.45;;;;;;;-141.02;100.00;86747.00;5134018;27;20279;-63
2023/07/15 04:23:56;;;;;;;14.18;13.68;;;;;;;-141.02;100.00;86995.94;5134053;27;20246;-58
2023/07/15 04:26:26;;;;;;;14.10;13.60;;;;;;;-141.02;100.00;86498.09;5133918;27;20220;-65
2023/07/15 04:28:55;;;;;;;14.57;14.07;;;;;;;-141.02;100.00;86249.22;5133799;27;20263;-64
2023/07/15 04:31:22;;;;;;;13.98;13.48;;;;;;;-141.02;100.00;85751.50;5133833;27;20662;-62
2023/07/15 04:33:50;;;;;;;14.30;13.80;;;;;;;-141.02;100.00;85005.03;5133890;27;20224;-60
2023/07/15 04:36:20;;;;;;;14.90;14.30;;;;;;;-141.02;100.00;84507.50;5134127;27;20279;-61
2023/07/15 04:38:47;;;;;;;15.85;15.15;;;;;;;-141.02;100.00;83263.97;5133699;27;20241;-64
2023/07/15 04:41:15;;;;;;;17.33;16.52;;;;;;;-141.02;100.00;79536.03;5133656;27;20682;-64
2023/07/15 04:43:43;;;;;;;18.52;17.63;;;;;;;-141.02;100.00;77053.00;5133519;27;20200;-58
2023/07/15 04:46:11;;;;;;;18.67;17.77;;;;;;;-141.02;95.55;76060.28;5133966;27;20284;-63
2023/07/15 04:48:40;;;;;;;18.95;18.00;;;;;;;-141.02;93.85;74819.81;5133460;27;20255;-65
2023/07/15 04:51:07;;;;;;;17.83;16.92;;;;;;;-141.02;93.87;74571.75;5133514;27;20247;-65
2023/07/15 04:53:34;;;;;;;18.13;17.23;;;;;;;-141.02;91.51;74075.72;5133778;27;20310;-65
2023/07/15 04:56:02;;;;;;;18.77;17.77;;;;;;;-141.02;88.58;72588.06;5133711;27;20192;-65
2023/07/15 04:58:30;;;;;;;18.88;17.88;;;;;;;-141.02;91.18;72835.97;5133740;27;20196;-65
2023/07/15 05:00:58;;;;;;;18.38;17.48;;;;;;;-141.02;92.60;72340.16;5133671;27;20261;-62
2023/07/15 05:03:25;;;;;;;18.27;17.38;;;;;;;-141.02;93.45;71844.47;5133340;27;20214;-62
2023/07/15 05:05:52;;;;;;;18.05;17.15;;;;;;;-141.02;95.91;72835.97;5133613;27;20234;-63
2023/07/15 05:08:20;;;;;;;17.23;16.33;;;;;;;-141.02;97.40;72092.31;5132440;27;20769;-64
2023/07/15 05:10:48;;;;;;;17.65;16.75;;;;;;;-141.02;96.89;71844.47;5133224;27;20283;-64
2023/07/15 05:13:16;;;;;;;17.08;16.27;;;;;;;-141.02;98.39;71844.47;5133417;27;20196;-63
2023/07/15 05:15:43;;;;;;;16.90;16.10;;;;;;;-141.02;99.10;72092.31;5133129;27;20568;-64
2023/07/15 05:18:12;;;;;;;16.90;16.10;;;;;;;-141.02;98.43;71348.81;5132839;27;20702;-64
2023/07/15 05:20:39;;;;;;;16.65;15.95;;;;;;;-141.02;98.27;71348.81;5133445;27;20191;-62
2023/07/15 05:23:06;;;;;;;15.95;15.25;;;;;;;-141.02;100.00;72092.31;5133028;27;20591;-64
2023/07/15 05:25:35;;;;;;;16.55;15.75;;;;;;;-141.02;99.05;71596.63;5133288;27;20611;-61
2023/07/15 05:28:02;;;;;;;15.90;15.20;;;;;;;-141.02;98.06;72092.31;5132892;27;20196;-65
2023/07/15 05:30:29;;;;;;;16.23;15.52;;;;;;;-141.02;97.12;72092.31;5133151;27;20222;-63
2023/07/15 05:32:56;;;;;;;17.13;16.33;;;;;;;-141.02;95.82;71348.81;5133149;28;20227;-63
2023/07/15 05:35:24;;;;;;;16.00;15.30;;;;;;;-141.02;98.55;71844.47;5132994;28;20227;-63
2023/07/15 05:37:51;;;;;;;16.50;15.73;;;;;;;-141.02;97.77;71101.03;5132888;28;20226;-62
2023/07/15 05:40:18;;;;;;;16.63;15.82;;;;;;;-141.02;98.88;71596.63;5133415;28;20211;-62
2023/07/15 05:42:46;;;;;;;16.20;15.50;;;;;;;-141.02;100.00;71101.03;5132739;28;20693;-65
2023/07/15 05:45:13;;;;;;;15.00;14.40;;;;;;;-141.02;100.00;71596.63;5133004;28;20287;-64
2023/07/15 05:47:41;;;;;;;14.23;13.65;;;;;;;-141.02;100.00;71596.63;5133080;27;20241;-63
2023/07/15 05:50:09;;;;;;;14.55;13.95;;;;;;;-141.02;100.00;72340.16;5132954;28;20224;-64
2023/07/15 05:52:38;;;;;;;15.10;14.50;;;;;;;-141.02;100.00;72092.31;5133087;28;20198;-64
2023/07/15 05:55:06;;;;;;;15.15;14.55;;;;;;;-141.02;100.00;72340.16;5133013;27;20196;-63
2023/07/15 05:57:33;;;;;;;15.20;14.60;;;;;;;-141.02;100.00;71844.47;5132995;28;20280;-57
2023/07/15 06:00:00;;;;;;;15.00;14.40;;;;;;;-141.02;100.00;72092.31;5132854;28;20284;-57
2023/07/15 06:02:27;;;;;;;14.80;14.20;;;;;;;-141.02;100.00;72340.16;5132909;28;20224;-60
2023/07/15 06:04:54;;;;;;;14.82;14.23;;;;;;;-141.02;100.00;72092.31;5132599;28;20236;-63
2023/07/15 06:07:21;;;;;;;15.05;14.45;;;;;;;-141.02;100.00;72092.31;5132593;28;20296;-64
2023/07/15 06:09:52;;;;;;;14.90;14.30;;;;;;;-141.02;100.00;73083.88;5132498;27;20264;-59
2023/07/15 06:12:19;;;;;;;16.40;15.70;;;;;;;-141.02;100.00;71596.63;5132837;28;20193;-60
2023/07/15 06:14:46;;;;;;;15.82;15.23;;;;;;;-141.02;100.00;71596.63;5132854;27;20271;-65
2023/07/15 06:17:13;;;;;;;16.00;15.30;;;;;;;-141.02;100.00;71844.47;5132400;28;20673;-65
2023/07/15 06:19:40;;;;;;;16.30;15.60;;;;;;;-141.02;100.00;71596.63;5133735;27;20747;-61
2023/07/15 06:22:08;;;;;;;15.30;14.70;;;;;;;-141.02;100.00;72588.06;5136765;27;20697;-64
2023/07/15 06:24:35;;;;;;;16.58;15.88;;;;;;;-141.02;99.40;71348.81;5136338;27;20651;-65
2023/07/15 06:27:03;;;;;;;16.35;15.65;;;;;;;-141.02;100.00;72092.31;5136633;27;20369;-61
2023/07/15 06:29:31;;;;;;;16.67;15.98;;;;;;;-141.02;100.00;72092.31;5136460;27;20327;-57
2023/07/15 06:31:58;;;;;;;17.00;16.20;;;;;;;-141.02;98.96;72092.31;5136254;27;20234;-65
2023/07/15 06:34:25;;;;;;;17.08;16.27;;;;;;;-141.02;98.03;71596.63;5136109;27;20284;-63
2023/07/15 06:36:52;;;;;;;16.80;16.00;;;;;;;-141.02;99.32;72588.06;5136415;27;20253;-64
2023/07/15 06:39:19;;;;;;;17.70;16.90;;;;;;;-141.02;95.71;71844.47;5136357;27;20193;-63
2023/07/15 06:41:46;;;;;;;18.10;17.30;;;;;;;-141.02;94.31;71844.47;5135963;27;20232;-63
2023/07/15 06:44:14;;;;;;;18.00;17.10;;;;;;;-141.02;96.96;72835.97;5136001;27;20670;-58
2023/07/15 06:46:41;;;;;;;17.77;16.98;;;;;;;-141.02;93.64;72588.06;5135941;27;20746;-64
2023/07/15 06:49:08;;;;;;;18.58;17.67;;;;;;;-141.02;92.07;72340.16;5136124;27;20275;-59
2023/07/15 06:51:36;;;;;;;18.27;17.38;;;;;;;-141.02;91.86;72092.31;5135795;27;20719;-61
2023/07/15 06:54:03;;;;;;;19.80;18.80;;;;;;;-141.02;86.70;69862.34;5136567;27;20243;-58
2023/07/15 06:56:30;;;;;;;20.30;19.30;;;;;;;-141.02;88.20;70605.50;5136109;27;20196;-64
2023/07/15 06:58:57;;;;;;;20.38;19.38;;;;;;;-141.02;85.74;69366.97;5135611;27;20233;-64
2023/07/15 07:01:25;;;;;;;20.17;19.15;;;;;;;-141.02;83.70;69119.34;5135961;27;20196;-65
2023/07/15 07:03:52;;;;;;;20.70;19.60;;;;;;;-141.02;84.37;69366.97;5135902;27;20230;-64
2023/07/15 07:06:20;;;;;;;20.85;19.75;;;;;;;-141.02;84.41;69119.34;5136113;27;20207;-65
2023/07/15 07:08:47;;;;;;;21.25;20.15;;;;;;;-141.02;82.13;68871.72;5135397;27;20670;-63
2023/07/15 07:11:14;;;;;;;20.15;19.05;;;;;;;-141.02;82.95;70110.03;5135761;27;20193;-64
2023/07/15 07:13:41;;;;;;;21.33;20.23;;;;;;;-141.02;79.34;68624.09;5135449;27;20284;-65
2023/07/15 07:16:08;;;;;;;21.85;20.65;;;;;;;-141.02;78.60;68128.91;5135692;27;20203;-65
2023/07/15 07:18:37;;;;;;;20.45;19.35;;;;;;;-141.02;81.27;70110.03;5135158;27;20259;-66
2023/07/15 07:21:04;;;;;;;21.88;20.67;;;;;;;-141.02;80.86;69366.97;5135270;27;20283;-57
2023/07/15 07:23:31;;;;;;;21.70;20.50;;;;;;;-141.02;81.24;69119.34;5135565;27;20640;-57
2023/07/15 07:25:58;;;;;;;20.83;19.73;;;;;;;-141.02;80.58;69366.97;5135784;27;20199;-60
2023/07/15 07:28:40;;;;;;;21.02;19.92;;;;;;;-141.02;76.42;68624.09;5135674;27;20196;-59
2023/07/15 07:31:07;;;;;;;22.00;20.80;;;;;;;-141.02;76.56;68376.50;5134714;27;20271;-64
2023/07/15 07:33:35;;;;;;;20.92;19.83;;;;;;;-141.02;81.35;69614.66;5135297;27;20220;-65
2023/07/15 07:36:03;;;;;;;21.38;20.17;;;;;;;-141.02;79.88;69366.97;5134995;27;20658;-62
2023/07/15 07:38:30;;;;;;;21.10;19.90;;;;;;;-141.02;75.35;68376.50;5135164;27;20196;-61
2023/07/15 07:41:04;;;;;;;21.30;20.10;;;;;;;-141.02;78.74;69119.34;5135225;27;20202;-66
2023/07/15 07:43:31;;;;;;;21.42;20.23;;;;;;;-141.02;77.85;69366.97;5135223;27;20292;-61
2023/07/15 07:45:58;;;;;;;21.58;20.38;;;;;;;-141.02;76.42;69119.34;5134775;27;20231;-62
2023/07/15 07:48:25;;;;;;;20.67;19.48;;;;;;;-141.02;77.94;69614.66;5134733;27;20235;-67
2023/07/15 07:50:53;;;;;;;20.52;19.33;;;;;;;-141.02;76.71;68624.09;5134882;27;20312;-63
2023/07/15 07:53:21;;;;;;;20.77;19.58;;;;;;;-141.02;75.79;68871.72;5134967;27;20192;-59
2023/07/15 07:55:48;;;;;;;45.90;43.20;;;;;;;-141.02;76.30;69119.34;5134650;27;20195;-61
2023/07/15 07:58:15;;;;;;;72.68;68.63;;;;;;;-141.02;78.51;69862.34;5134775;27;20224;-63
2023/07/15 08:00:42;;;;;;;73.88;69.82;;;;;;;-141.02;73.79;68871.72;5134821;27;20272;-65
2023/07/15 08:03:09;;;;;;;61.35;57.78;;;;;;;-141.02;75.08;69119.34;5134612;27;20283;-61
2023/07/15 08:05:40;;;;;;;58.83;55.42;;;;;;;-141.02;72.23;68624.09;5134743;27;20279;-60
2023/07/15 08:08:09;;;;;;;51.22;48.33;;;;;;;-141.02;73.74;68624.09;5134997;27;20268;-61
2023/07/15 08:10:39;;;;;;;23.50;22.10;;;;;;;-141.02;73.15;68376.50;5134600;27;20252;-67
2023/07/15 08:13:07;;;;;;;22.05;20.75;;;;;;;-141.02;74.04;68624.09;5134536;27;20235;-64
2023/07/15 08:15:34;;;;;;;21.38;20.17;;;;;;;-141.02;75.08;69366.97;5134447;27;20207;-62
2023/07/15 08:18:01;;;;;;;23.13;21.73;;;;;;;-141.02;73.87;69119.34;5134034;27;20319;-67
2023/07/15 08:20:30;;;;;;;22.63;21.23;;;;;;;-141.02;75.03;68624.09;5134469;27;20206;-59
2023/07/15 08:22:58;;;;;;;21.08;19.88;;;;;;;-141.02;74.34;68624.09;5134394;27;20192;-63
2023/07/15 08:25:26;;;;;;;20.73;19.52;;;;;;;-141.02;73.17;68871.72;5133930;27;20235;-65
2023/07/15 08:27:54;;;;;;;20.77;19.58;;;;;;;-141.02;72.78;69614.66;5134431;27;20702;-62
2023/07/15 08:30:21;;;;;;;20.98;19.77;;;;;;;-141.02;73.04;69614.66;5133788;27;20224;-64
2023/07/15 08:32:48;;;;;;;21.35;20.15;;;;;;;-141.02;72.53;69366.97;5134183;27;20220;-59
2023/07/15 08:35:15;;;;;;;20.48;19.30;;;;;;;-141.02;73.65;70605.50;5133932;27;20279;-64
2023/07/15 08:37:43;;;;;;;21.83;20.52;;;;;;;-141.02;71.87;69119.34;5134044;27;20275;-60
2023/07/15 08:40:12;;;;;;;41.45;39.05;;;;;;;-141.02;73.28;69862.34;5133719;27;20196;-62
2023/07/15 08:42:41;;;;;;;36.42;34.42;;;;;;;-141.02;70.48;69614.66;5133050;27;20662;-60
2023/07/15 08:45:09;;;;;;;35.22;33.17;;;;;;;-141.02;73.50;71348.81;5133672;27;20271;-57
2023/07/15 08:47:39;;;;;;;24.85;23.38;;;;;;;-141.02;70.75;70853.25;5133629;27;20705;-63
2023/07/15 08:50:09;;;;;;;21.92;20.63;;;;;;;-141.02;69.75;70357.75;5133495;27;20220;-59
2023/07/15 08:52:37;;;;;;;26.23;24.73;;;;;;;-141.02;71.19;71348.81;5133921;27;20276;-65
2023/07/15 08:55:04;;;;;;;22.23;21.02;;;;;;;-141.02;70.54;70853.25;5133770;27;20204;-63
2023/07/15 08:57:33;;;;;;;21.92;20.63;;;;;;;-141.02;69.90;69614.66;5133456;27;20224;-65
2023/07/15 09:00:08;;;;;;;21.95;20.75;;;;;;;-141.02;71.51;70853.25;5133599;27;20200;-64
2023/07/15 09:02:37;;;;;;;21.80;20.52;;;;;;;-141.02;69.81;69862.34;5133447;27;20615;-66
2023/07/15 09:05:07;;;;;;;22.13;20.92;;;;;;;-141.02;71.67;70605.50;5133318;27;20196;-64
2023/07/15 09:07:44;;;;;;;23.05;21.75;;;;;;;-141.02;69.79;69119.34;5133865;27;20192;-65
2023/07/15 09:10:14;;;;;;;21.63;20.33;;;;;;;-141.02;69.87;69862.34;5133423;27;20208;-68
2023/07/15 09:12:54;;;;;;;21.83;20.63;;;;;;;-141.02;67.96;69614.66;5133259;27;20639;-64
2023/07/15 09:15:23;;;;;;;23.10;21.80;;;;;;;-141.02;68.67;69119.34;5133440;27;20271;-66
2023/07/15 09:17:54;;;;;;;23.02;21.73;;;;;;;-141.02;70.22;70605.50;5132996;27;20283;-64
2023/07/15 09:20:22;;;;;;;22.73;21.42;;;;;;;-141.02;68.01;70110.03;5133069;27;20617;-66
2023/07/15 09:22:52;;;;;;;23.08;21.77;;;;;;;-141.02;67.61;70110.03;5133061;27;20189;-61
2023/07/15 09:25:22;;;;;;;23.00;21.70;;;;;;;-141.02;67.99;69366.97;5132938;27;20686;-66
2023/07/15 09:27:49;;;;;;;23.02;21.73;;;;;;;-141.02;68.49;70853.25;5132943;27;20192;-66
2023/07/15 09:30:17;;;;;;;55.70;52.40;;;;;;;-141.02;66.97;71101.03;5133149;27;20259;-66
2023/07/15 09:32:46;;;;;;;79.95;75.45;;;;;;;-141.02;65.57;70110.03;5133142;28;20202;-61
2023/07/15 09:35:14;;;;;;;74.35;70.25;;;;;;;-141.02;64.65;69119.34;5132898;27;20283;-65
2023/07/15 09:37:41;;;;;;;44.08;41.47;;;;;;;-141.02;66.12;70357.75;5132814;28;20721;-65
2023/07/15 09:40:10;;;;;;;41.35;38.97;;;;;;;-141.02;64.25;70357.75;5133139;28;20279;-63
2023/07/15 09:42:53;;;;;;;43.63;41.13;;;;;;;-141.02;65.29;68871.72;5133015;27;20571;-61
2023/07/15 09:45:34;;;;;;;39.97;37.67;;;;;;;-141.02;64.81;68871.72;5132727;28;20287;-61
2023/07/15 09:48:05;;;;;;;23.13;21.83;;;;;;;-141.02;64.85;67881.38;5133056;28;20192;-64
2023/07/15 09:50:33;;;;;;;22.70;21.40;;;;;;;-141.02;66.16;69119.34;5132799;28;20299;-66
2023/07/15 09:53:01;;;;;;;23.77;22.48;;;;;;;-141.02;65.28;67386.28;5132669;28;20282;-64
2023/07/15 09:55:29;;;;;;;22.70;21.40;;;;;;;-141.02;64.90;69119.34;5135605;27;20273;-64
2023/07/15 09:58:03;;;;;;;23.60;22.30;;;;;;;-141.02;65.64;69119.34;5137370;27;20268;-64
2023/07/15 10:00:34;;;;;;;23.80;22.45;;;;;;;-141.02;62.85;68128.91;5137778;27;20275;-61
2023/07/15 10:03:03;;;;;;;23.15;21.85;;;;;;;-141.02;64.88;68871.72;5136727;27;20643;-66
2023/07/15 10:05:32;;;;;;;23.40;22.10;;;;;;;-141.02;65.02;67138.78;5136709;27;20192;-64
2023/07/15 10:08:00;;;;;;;71.03;66.97;;;;;;;-141.02;63.58;67386.28;5136915;27;20582;-66
2023/07/15 10:10:28;;;;;;;83.07;78.68;;;;;;;-141.02;65.16;68624.09;5136802;27;20311;-64
2023/07/15 10:12:55;;;;;;;77.97;73.72;;;;;;;-141.02;62.30;68624.09;5136547;27;20671;-64
2023/07/15 10:15:23;;;;;;;58.90;55.40;;;;;;;-141.02;62.16;68376.50;5136467;27;20284;-66
2023/07/15 10:17:50;;;;;;;55.83;52.63;;;;;;;-141.02;62.92;69366.97;5136290;27;20199;-62
2023/07/15 10:20:19;;;;;;;22.30;21.00;;;;;;;-141.02;62.48;69366.97;5136426;27;20689;-66
2023/07/15 10:22:48;;;;;;;23.15;21.85;;;;;;;-141.02;60.25;68128.91;5136384;27;20189;-67
2023/07/15 10:25:16;;;;;;;23.42;22.13;;;;;;;-141.02;62.58;68624.09;5136539;27;20192;-67
2023/07/15 10:27:43;;;;;;;24.00;22.60;;;;;;;-141.02;62.02;67138.78;5136684;27;20196;-63
2023/07/15 10:30:23;;;;;;;22.95;21.65;;;;;;;-141.02;60.77;65901.53;5136212;27;20596;-66
2023/07/15 10:33:14;;;;;;;39.38;37.17;;;;;;;-141.02;63.08;68871.72;5136238;27;20184;-65
2023/07/15 10:35:51;;;;;;;42.35;39.95;;;;;;;-141.02;61.04;69862.34;5136418;27;20280;-66
2023/07/15 10:38:23;;;;;;;41.00;38.67;;;;;;;-141.02;60.11;69119.34;5136115;27;20184;-66
2023/07/15 10:40:51;;;;;;;23.30;22.00;;;;;;;-141.02;59.14;67881.38;5136333;27;20280;-65
2023/07/15 10:43:19;;;;;;;23.15;21.85;;;;;;;-141.02;59.66;69119.34;5135920;27;20283;-67
2023/07/15 10:45:52;;;;;;;23.05;21.75;;;;;;;-141.02;58.68;67138.78;5135842;27;20196;-67
2023/07/15 10:48:19;;;;;;;23.50;22.13;;;;;;;-141.02;58.82;66396.38;5135907;27;20703;-58
2023/07/15 10:50:52;;;;;;;23.25;21.95;;;;;;;-141.02;56.31;64912.06;5136041;27;20600;-64
2023/07/15 10:53:23;;;;;;;23.35;22.02;;;;;;;-141.02;58.67;66643.84;5135807;27;20192;-66
2023/07/15 10:55:58;;;;;;;23.15;21.75;;;;;;;-141.02;57.60;67138.78;5135642;27;20199;-65
2023/07/15 10:58:25;;;;;;;23.50;22.10;;;;;;;-141.02;58.87;67633.81;5136147;27;20287;-63
2023/07/15 11:00:58;;;;;;;23.77;22.38;;;;;;;-141.02;55.72;66396.38;5136176;27;20193;-66
2023/07/15 11:03:25;;;;;;;23.88;22.48;;;;;;;-141.02;55.91;67138.78;5135639;27;20184;-66
2023/07/15 11:05:56;;;;;;;23.65;22.25;;;;;;;-141.02;55.55;62933.94;5134902;27;20196;-65
2023/07/15 11:08:23;;;;;;;23.20;21.80;;;;;;;-141.02;58.56;66148.94;5135688;27;20276;-66
2023/07/15 11:10:50;;;;;;;23.95;22.55;;;;;;;-141.02;56.44;65654.13;5135760;27;20224;-67
2023/07/15 11:13:18;;;;;;;23.73;22.33;;;;;;;-141.02;54.58;64912.06;5135679;27;20195;-65
2023/07/15 11:15:45;;;;;;;23.75;22.35;;;;;;;-141.02;54.30;63675.59;5135694;27;20275;-62
2023/07/15 11:18:17;;;;;;;23.73;22.33;;;;;;;-141.02;57.97;65159.41;5135463;27;20239;-62
2023/07/15 11:20:45;;;;;;;23.40;22.00;;;;;;;-141.02;55.87;65159.41;5135563;27;20196;-62
2023/07/15 11:23:14;;;;;;;22.92;21.63;;;;;;;-141.02;54.41;63922.84;5135140;27;20290;-65
2023/07/15 11:25:42;;;;;;;23.48;22.08;;;;;;;-141.02;55.47;64417.41;5135258;27;20200;-67